sensor_id;sensor_type;location;lat;lon;timestamp;P1;durP1;ratioP1;P2;durP2;ratioP2
6292;SDS011;3179;54.350;10.102;2023-12-20T00:00:34;7.30;;;1.60;;
6292;SDS011;3179;54.350;10.102;2023-12-20T00:03:02;12.03;;;2.50;;
6292;SDS011;3179;54.350;10.102;2023-12-20T00:05:31;7.60;;;1.90;;
6292;SDS011;3179;54.350;10.102;2023-12-20T00:07:58;8.93;;;2.30;;
6292;SDS011;3179;54.350;10.102;2023-12-20T00:10:25;14.20;;;2.03;;
6292;SDS011;3179;54.350;10.102;2023-12-20T00:12:52;13.97;;;2.40;;
6292;SDS011;3179;54.350;10.102;2023-12-20T00:15:19;7.10;;;1.73;;
6292;SDS011;3179;54.350;10.102;2023-12-20T00:17:45;5.87;;;1.80;;
6292;SDS011;3179;54.350;10.102;2023-12-20T00:20:12;11.10;;;2.03;;
6292;SDS011;3179;54.350;10.102;2023-12-20T00:22:40;7.60;;;1.97;;
6292;SDS011;3179;54.350;10.102;2023-12-20T00:25:07;11.17;;;2.00;;
6292;SDS011;3179;54.350;10.102;2023-12-20T00:27:34;10.30;;;2.13;;
6292;SDS011;3179;54.350;10.102;2023-12-20T00:30:01;7.90;;;2.10;;
6292;SDS011;3179;54.350;10.102;2023-12-20T00:32:28;10.70;;;2.07;;
6292;SDS011;3179;54.350;10.102;2023-12-20T00:34:55;11.30;;;2.07;;
6292;SDS011;3179;54.350;10.102;2023-12-20T00:37:22;15.23;;;2.27;;
6292;SDS011;3179;54.350;10.102;2023-12-20T00:39:50;8.60;;;1.97;;
6292;SDS011;3179;54.350;10.102;2023-12-20T00:42:17;14.67;;;3.00;;
6292;SDS011;3179;54.350;10.102;2023-12-20T00:44:44;10.40;;;1.83;;
6292;SDS011;3179;54.350;10.102;2023-12-20T00:47:11;7.87;;;2.13;;
6292;SDS011;3179;54.350;10.102;2023-12-20T00:49:38;11.93;;;2.57;;
6292;SDS011;3179;54.350;10.102;2023-12-20T00:52:05;7.90;;;2.03;;
6292;SDS011;3179;54.350;10.102;2023-12-20T00:54:32;7.67;;;2.30;;
6292;SDS011;3179;54.350;10.102;2023-12-20T00:57:00;9.70;;;2.40;;
6292;SDS011;3179;54.350;10.102;2023-12-20T00:59:27;10.67;;;2.00;;
6292;SDS011;3179;54.350;10.102;2023-12-20T01:01:54;10.17;;;3.00;;
6292;SDS011;3179;54.350;10.102;2023-12-20T01:04:21;10.97;;;1.97;;
6292;SDS011;3179;54.350;10.102;2023-12-20T01:06:47;15.03;;;2.37;;
6292;SDS011;3179;54.350;10.102;2023-12-20T01:09:14;8.73;;;2.10;;
6292;SDS011;3179;54.350;10.102;2023-12-20T01:11:41;6.60;;;1.50;;
6292;SDS011;3179;54.350;10.102;2023-12-20T01:14:10;7.80;;;2.07;;
6292;SDS011;3179;54.350;10.102;2023-12-20T01:16:37;6.70;;;1.80;;
6292;SDS011;3179;54.350;10.102;2023-12-20T01:19:04;10.20;;;1.93;;
6292;SDS011;3179;54.350;10.102;2023-12-20T01:21:31;8.23;;;2.00;;
6292;SDS011;3179;54.350;10.102;2023-12-20T01:23:58;5.90;;;1.73;;
6292;SDS011;3179;54.350;10.102;2023-12-20T01:26:25;15.47;;;2.90;;
6292;SDS011;3179;54.350;10.102;2023-12-20T01:28:52;11.07;;;2.40;;
6292;SDS011;3179;54.350;10.102;2023-12-20T01:31:21;4.27;;;1.40;;
6292;SDS011;3179;54.350;10.102;2023-12-20T01:33:47;4.73;;;2.03;;
6292;SDS011;3179;54.350;10.102;2023-12-20T01:36:14;10.70;;;2.07;;
6292;SDS011;3179;54.350;10.102;2023-12-20T01:38:41;15.23;;;2.23;;
6292;SDS011;3179;54.350;10.102;2023-12-20T01:41:08;10.53;;;2.20;;
6292;SDS011;3179;54.350;10.102;2023-12-20T01:43:35;9.37;;;1.93;;
6292;SDS011;3179;54.350;10.102;2023-12-20T01:46:02;6.50;;;1.63;;
6292;SDS011;3179;54.350;10.102;2023-12-20T01:48:30;11.20;;;2.13;;
6292;SDS011;3179;54.350;10.102;2023-12-20T01:50:57;8.10;;;1.80;;
6292;SDS011;3179;54.350;10.102;2023-12-20T01:53:25;10.47;;;2.30;;
6292;SDS011;3179;54.350;10.102;2023-12-20T01:55:54;9.10;;;1.87;;
6292;SDS011;3179;54.350;10.102;2023-12-20T01:58:22;14.43;;;2.70;;
6292;SDS011;3179;54.350;10.102;2023-12-20T02:00:50;9.10;;;1.83;;
6292;SDS011;3179;54.350;10.102;2023-12-20T02:03:17;7.53;;;2.03;;
6292;SDS011;3179;54.350;10.102;2023-12-20T02:05:46;9.37;;;2.27;;
6292;SDS011;3179;54.350;10.102;2023-12-20T02:08:14;7.23;;;2.07;;
6292;SDS011;3179;54.350;10.102;2023-12-20T02:10:40;7.00;;;1.87;;
6292;SDS011;3179;54.350;10.102;2023-12-20T02:13:08;12.53;;;2.33;;
6292;SDS011;3179;54.350;10.102;2023-12-20T02:15:34;14.00;;;2.20;;
6292;SDS011;3179;54.350;10.102;2023-12-20T02:18:02;14.93;;;2.20;;
6292;SDS011;3179;54.350;10.102;2023-12-20T02:20:29;8.90;;;2.40;;
6292;SDS011;3179;54.350;10.102;2023-12-20T02:22:58;10.30;;;2.30;;
6292;SDS011;3179;54.350;10.102;2023-12-20T02:25:24;5.90;;;1.70;;
6292;SDS011;3179;54.350;10.102;2023-12-20T02:27:51;8.10;;;2.37;;
6292;SDS011;3179;54.350;10.102;2023-12-20T02:30:18;9.27;;;1.93;;
6292;SDS011;3179;54.350;10.102;2023-12-20T02:32:45;9.90;;;1.77;;
6292;SDS011;3179;54.350;10.102;2023-12-20T02:35:12;7.87;;;1.93;;
6292;SDS011;3179;54.350;10.102;2023-12-20T02:37:39;11.60;;;2.07;;
6292;SDS011;3179;54.350;10.102;2023-12-20T02:40:08;8.63;;;1.80;;
6292;SDS011;3179;54.350;10.102;2023-12-20T02:42:35;5.47;;;1.40;;
6292;SDS011;3179;54.350;10.102;2023-12-20T02:45:01;12.33;;;2.40;;
6292;SDS011;3179;54.350;10.102;2023-12-20T02:47:28;4.80;;;1.70;;
6292;SDS011;3179;54.350;10.102;2023-12-20T02:49:55;5.77;;;1.50;;
6292;SDS011;3179;54.350;10.102;2023-12-20T02:52:22;9.00;;;2.13;;
6292;SDS011;3179;54.350;10.102;2023-12-20T02:54:50;6.57;;;2.00;;
6292;SDS011;3179;54.350;10.102;2023-12-20T02:57:18;7.27;;;1.50;;
6292;SDS011;3179;54.350;10.102;2023-12-20T02:59:45;10.10;;;1.70;;
6292;SDS011;3179;54.350;10.102;2023-12-20T03:02:12;3.80;;;1.20;;
6292;SDS011;3179;54.350;10.102;2023-12-20T03:04:39;6.70;;;1.70;;
6292;SDS011;3179;54.350;10.102;2023-12-20T03:07:05;3.53;;;1.57;;
6292;SDS011;3179;54.350;10.102;2023-12-20T03:09:32;6.90;;;1.90;;
6292;SDS011;3179;54.350;10.102;2023-12-20T03:12:04;9.53;;;1.47;;
6292;SDS011;3179;54.350;10.102;2023-12-20T03:14:32;3.80;;;1.27;;
6292;SDS011;3179;54.350;10.102;2023-12-20T03:16:59;5.97;;;1.30;;
6292;SDS011;3179;54.350;10.102;2023-12-20T03:19:26;2.80;;;1.13;;
6292;SDS011;3179;54.350;10.102;2023-12-20T03:21:54;7.90;;;1.40;;
6292;SDS011;3179;54.350;10.102;2023-12-20T03:24:21;4.17;;;1.53;;
6292;SDS011;3179;54.350;10.102;2023-12-20T03:26:47;8.77;;;2.20;;
6292;SDS011;3179;54.350;10.102;2023-12-20T03:29:14;7.70;;;2.13;;
6292;SDS011;3179;54.350;10.102;2023-12-20T03:31:42;6.60;;;1.30;;
6292;SDS011;3179;54.350;10.102;2023-12-20T03:34:09;8.60;;;1.60;;
6292;SDS011;3179;54.350;10.102;2023-12-20T03:36:36;5.47;;;1.87;;
6292;SDS011;3179;54.350;10.102;2023-12-20T03:39:03;8.40;;;2.73;;
6292;SDS011;3179;54.350;10.102;2023-12-20T03:41:31;9.10;;;2.10;;
6292;SDS011;3179;54.350;10.102;2023-12-20T03:43:58;14.60;;;2.07;;
6292;SDS011;3179;54.350;10.102;2023-12-20T03:46:24;8.50;;;2.10;;
6292;SDS011;3179;54.350;10.102;2023-12-20T03:48:53;9.20;;;2.10;;
6292;SDS011;3179;54.350;10.102;2023-12-20T03:51:19;12.93;;;2.37;;
6292;SDS011;3179;54.350;10.102;2023-12-20T03:53:46;9.20;;;2.57;;
6292;SDS011;3179;54.350;10.102;2023-12-20T03:56:13;10.30;;;2.03;;
6292;SDS011;3179;54.350;10.102;2023-12-20T03:58:40;15.97;;;1.90;;
6292;SDS011;3179;54.350;10.102;2023-12-20T04:01:09;19.00;;;2.47;;
6292;SDS011;3179;54.350;10.102;2023-12-20T04:03:38;5.30;;;1.70;;
6292;SDS011;3179;54.350;10.102;2023-12-20T04:06:06;9.50;;;1.80;;
6292;SDS011;3179;54.350;10.102;2023-12-20T04:08:33;6.23;;;1.53;;
6292;SDS011;3179;54.350;10.102;2023-12-20T04:11:00;6.90;;;1.80;;
6292;SDS011;3179;54.350;10.102;2023-12-20T04:13:27;8.50;;;1.93;;
6292;SDS011;3179;54.350;10.102;2023-12-20T04:15:54;11.70;;;1.80;;
6292;SDS011;3179;54.350;10.102;2023-12-20T04:18:21;9.40;;;1.60;;
6292;SDS011;3179;54.350;10.102;2023-12-20T04:20:47;4.60;;;1.50;;
6292;SDS011;3179;54.350;10.102;2023-12-20T04:23:16;3.73;;;1.10;;
6292;SDS011;3179;54.350;10.102;2023-12-20T04:25:43;9.60;;;2.07;;
6292;SDS011;3179;54.350;10.102;2023-12-20T04:28:10;6.30;;;2.20;;
6292;SDS011;3179;54.350;10.102;2023-12-20T04:30:36;10.00;;;2.17;;
6292;SDS011;3179;54.350;10.102;2023-12-20T04:33:03;6.60;;;1.90;;
6292;SDS011;3179;54.350;10.102;2023-12-20T04:35:30;8.10;;;2.07;;
6292;SDS011;3179;54.350;10.102;2023-12-20T04:37:57;5.27;;;1.47;;
6292;SDS011;3179;54.350;10.102;2023-12-20T04:40:25;5.00;;;1.33;;
6292;SDS011;3179;54.350;10.102;2023-12-20T04:42:52;8.13;;;1.87;;
6292;SDS011;3179;54.350;10.102;2023-12-20T04:45:19;9.90;;;1.70;;
6292;SDS011;3179;54.350;10.102;2023-12-20T04:47:46;10.27;;;1.70;;
6292;SDS011;3179;54.350;10.102;2023-12-20T04:50:13;8.17;;;2.07;;
6292;SDS011;3179;54.350;10.102;2023-12-20T04:52:40;8.30;;;1.70;;
6292;SDS011;3179;54.350;10.102;2023-12-20T04:55:07;6.47;;;1.43;;
6292;SDS011;3179;54.350;10.102;2023-12-20T04:57:36;4.93;;;1.60;;
6292;SDS011;3179;54.350;10.102;2023-12-20T05:00:03;3.40;;;1.63;;
6292;SDS011;3179;54.350;10.102;2023-12-20T05:02:33;9.30;;;1.70;;
6292;SDS011;3179;54.350;10.102;2023-12-20T05:05:00;8.93;;;1.90;;
6292;SDS011;3179;54.350;10.102;2023-12-20T05:07:27;8.73;;;1.67;;
6292;SDS011;3179;54.350;10.102;2023-12-20T05:09:54;10.10;;;2.20;;
6292;SDS011;3179;54.350;10.102;2023-12-20T05:12:21;5.60;;;1.37;;
6292;SDS011;3179;54.350;10.102;2023-12-20T05:14:49;7.80;;;1.90;;
6292;SDS011;3179;54.350;10.102;2023-12-20T05:17:17;9.13;;;1.83;;
6292;SDS011;3179;54.350;10.102;2023-12-20T05:19:45;11.97;;;1.70;;
6292;SDS011;3179;54.350;10.102;2023-12-20T05:22:12;11.40;;;2.17;;
6292;SDS011;3179;54.350;10.102;2023-12-20T05:24:39;12.23;;;2.20;;
6292;SDS011;3179;54.350;10.102;2023-12-20T05:27:06;8.97;;;2.73;;
6292;SDS011;3179;54.350;10.102;2023-12-20T05:29:33;10.10;;;2.73;;
6292;SDS011;3179;54.350;10.102;2023-12-20T05:32:01;10.40;;;1.90;;
6292;SDS011;3179;54.350;10.102;2023-12-20T05:34:29;14.07;;;2.27;;
6292;SDS011;3179;54.350;10.102;2023-12-20T05:36:57;8.87;;;2.23;;
6292;SDS011;3179;54.350;10.102;2023-12-20T05:39:24;11.00;;;2.47;;
6292;SDS011;3179;54.350;10.102;2023-12-20T05:41:51;12.90;;;3.00;;
6292;SDS011;3179;54.350;10.102;2023-12-20T05:44:18;11.83;;;3.00;;
6292;SDS011;3179;54.350;10.102;2023-12-20T05:46:44;11.77;;;2.60;;
6292;SDS011;3179;54.350;10.102;2023-12-20T05:49:12;12.87;;;2.90;;
6292;SDS011;3179;54.350;10.102;2023-12-20T05:51:39;8.33;;;2.43;;
6292;SDS011;3179;54.350;10.102;2023-12-20T05:54:06;14.50;;;2.83;;
6292;SDS011;3179;54.350;10.102;2023-12-20T05:56:32;8.27;;;2.47;;
6292;SDS011;3179;54.350;10.102;2023-12-20T05:58:59;7.77;;;2.20;;
6292;SDS011;3179;54.350;10.102;2023-12-20T06:01:26;8.27;;;2.40;;
6292;SDS011;3179;54.350;10.102;2023-12-20T06:03:53;13.70;;;2.83;;
6292;SDS011;3179;54.350;10.102;2023-12-20T06:06:21;11.63;;;2.53;;
6292;SDS011;3179;54.350;10.102;2023-12-20T06:08:49;11.10;;;2.27;;
6292;SDS011;3179;54.350;10.102;2023-12-20T06:11:16;12.17;;;2.83;;
6292;SDS011;3179;54.350;10.102;2023-12-20T06:13:43;17.67;;;3.33;;
6292;SDS011;3179;54.350;10.102;2023-12-20T06:16:10;22.47;;;3.03;;
6292;SDS011;3179;54.350;10.102;2023-12-20T06:18:37;13.17;;;2.87;;
6292;SDS011;3179;54.350;10.102;2023-12-20T06:21:04;8.50;;;2.63;;
6292;SDS011;3179;54.350;10.102;2023-12-20T06:23:33;15.20;;;3.37;;
6292;SDS011;3179;54.350;10.102;2023-12-20T06:26:00;14.40;;;3.20;;
6292;SDS011;3179;54.350;10.102;2023-12-20T06:28:27;13.80;;;2.93;;
6292;SDS011;3179;54.350;10.102;2023-12-20T06:30:54;10.60;;;2.93;;
6292;SDS011;3179;54.350;10.102;2023-12-20T06:33:22;17.47;;;2.90;;
6292;SDS011;3179;54.350;10.102;2023-12-20T06:35:49;10.23;;;2.43;;
6292;SDS011;3179;54.350;10.102;2023-12-20T06:38:17;12.43;;;3.13;;
6292;SDS011;3179;54.350;10.102;2023-12-20T06:40:46;13.80;;;3.23;;
6292;SDS011;3179;54.350;10.102;2023-12-20T06:43:13;9.50;;;2.70;;
6292;SDS011;3179;54.350;10.102;2023-12-20T06:45:40;12.43;;;3.33;;
6292;SDS011;3179;54.350;10.102;2023-12-20T06:48:07;16.50;;;2.57;;
6292;SDS011;3179;54.350;10.102;2023-12-20T06:50:36;6.50;;;1.80;;
6292;SDS011;3179;54.350;10.102;2023-12-20T06:53:05;9.30;;;2.27;;
6292;SDS011;3179;54.350;10.102;2023-12-20T06:55:33;6.60;;;1.67;;
6292;SDS011;3179;54.350;10.102;2023-12-20T06:58:01;8.50;;;2.00;;
6292;SDS011;3179;54.350;10.102;2023-12-20T07:00:29;7.80;;;1.70;;
6292;SDS011;3179;54.350;10.102;2023-12-20T07:02:56;12.40;;;2.57;;
6292;SDS011;3179;54.350;10.102;2023-12-20T07:05:23;8.37;;;2.00;;
6292;SDS011;3179;54.350;10.102;2023-12-20T07:07:50;10.60;;;2.63;;
6292;SDS011;3179;54.350;10.102;2023-12-20T07:10:17;12.23;;;2.80;;
6292;SDS011;3179;54.350;10.102;2023-12-20T07:12:44;15.50;;;3.50;;
6292;SDS011;3179;54.350;10.102;2023-12-20T07:15:12;9.13;;;2.30;;
6292;SDS011;3179;54.350;10.102;2023-12-20T07:17:39;10.60;;;2.27;;
6292;SDS011;3179;54.350;10.102;2023-12-20T07:20:06;7.43;;;2.60;;
6292;SDS011;3179;54.350;10.102;2023-12-20T07:22:35;12.50;;;2.77;;
6292;SDS011;3179;54.350;10.102;2023-12-20T07:25:03;13.50;;;2.97;;
6292;SDS011;3179;54.350;10.102;2023-12-20T07:27:30;8.17;;;2.43;;
6292;SDS011;3179;54.350;10.102;2023-12-20T07:29:57;10.37;;;2.27;;
6292;SDS011;3179;54.350;10.102;2023-12-20T07:32:25;13.87;;;2.50;;
6292;SDS011;3179;54.350;10.102;2023-12-20T07:34:52;12.90;;;3.33;;
6292;SDS011;3179;54.350;10.102;2023-12-20T07:37:19;15.73;;;3.07;;
6292;SDS011;3179;54.350;10.102;2023-12-20T07:39:46;16.00;;;2.80;;
6292;SDS011;3179;54.350;10.102;2023-12-20T07:42:13;12.47;;;2.73;;
6292;SDS011;3179;54.350;10.102;2023-12-20T07:44:40;10.70;;;2.43;;
6292;SDS011;3179;54.350;10.102;2023-12-20T07:47:07;13.57;;;3.10;;
6292;SDS011;3179;54.350;10.102;2023-12-20T07:49:35;10.33;;;2.60;;
6292;SDS011;3179;54.350;10.102;2023-12-20T07:52:02;13.40;;;2.80;;
6292;SDS011;3179;54.350;10.102;2023-12-20T07:54:30;13.87;;;2.90;;
6292;SDS011;3179;54.350;10.102;2023-12-20T07:56:57;18.40;;;2.77;;
6292;SDS011;3179;54.350;10.102;2023-12-20T07:59:23;11.87;;;2.70;;
6292;SDS011;3179;54.350;10.102;2023-12-20T08:01:50;10.30;;;3.13;;
6292;SDS011;3179;54.350;10.102;2023-12-20T08:04:17;19.03;;;3.90;;
6292;SDS011;3179;54.350;10.102;2023-12-20T08:06:45;12.30;;;2.97;;
6292;SDS011;3179;54.350;10.102;2023-12-20T08:09:12;18.47;;;3.53;;
6292;SDS011;3179;54.350;10.102;2023-12-20T08:11:39;15.80;;;3.57;;
6292;SDS011;3179;54.350;10.102;2023-12-20T08:14:10;17.33;;;3.60;;
6292;SDS011;3179;54.350;10.102;2023-12-20T08:16:37;11.57;;;2.90;;
6292;SDS011;3179;54.350;10.102;2023-12-20T08:19:04;8.53;;;2.40;;
6292;SDS011;3179;54.350;10.102;2023-12-20T08:21:31;9.10;;;1.90;;
6292;SDS011;3179;54.350;10.102;2023-12-20T08:23:59;5.10;;;1.63;;
6292;SDS011;3179;54.350;10.102;2023-12-20T08:26:26;5.90;;;1.77;;
6292;SDS011;3179;54.350;10.102;2023-12-20T08:28:53;8.53;;;1.87;;
6292;SDS011;3179;54.350;10.102;2023-12-20T08:31:20;9.47;;;2.30;;
6292;SDS011;3179;54.350;10.102;2023-12-20T08:33:47;6.00;;;1.63;;
6292;SDS011;3179;54.350;10.102;2023-12-20T08:36:14;7.47;;;1.60;;
6292;SDS011;3179;54.350;10.102;2023-12-20T08:38:43;8.30;;;1.83;;
6292;SDS011;3179;54.350;10.102;2023-12-20T08:41:11;7.57;;;1.33;;
6292;SDS011;3179;54.350;10.102;2023-12-20T08:43:38;4.73;;;1.33;;
6292;SDS011;3179;54.350;10.102;2023-12-20T08:46:05;4.27;;;1.30;;
6292;SDS011;3179;54.350;10.102;2023-12-20T08:48:34;5.40;;;1.40;;
6292;SDS011;3179;54.350;10.102;2023-12-20T08:51:02;1.80;;;1.10;;
6292;SDS011;3179;54.350;10.102;2023-12-20T08:53:29;1.50;;;0.70;;
6292;SDS011;3179;54.350;10.102;2023-12-20T08:55:55;3.43;;;0.90;;
6292;SDS011;3179;54.350;10.102;2023-12-20T08:58:27;2.13;;;0.90;;
6292;SDS011;3179;54.350;10.102;2023-12-20T09:00:54;3.80;;;1.23;;
6292;SDS011;3179;54.350;10.102;2023-12-20T09:03:22;3.53;;;1.13;;
6292;SDS011;3179;54.350;10.102;2023-12-20T09:05:49;3.13;;;1.03;;
6292;SDS011;3179;54.350;10.102;2023-12-20T09:08:16;5.50;;;1.13;;
6292;SDS011;3179;54.350;10.102;2023-12-20T09:10:43;4.00;;;0.70;;
6292;SDS011;3179;54.350;10.102;2023-12-20T09:13:10;4.30;;;0.80;;
6292;SDS011;3179;54.350;10.102;2023-12-20T09:15:38;3.53;;;1.07;;
6292;SDS011;3179;54.350;10.102;2023-12-20T09:18:05;2.73;;;0.77;;
6292;SDS011;3179;54.350;10.102;2023-12-20T09:20:32;2.90;;;0.80;;
6292;SDS011;3179;54.350;10.102;2023-12-20T09:23:00;4.23;;;1.40;;
6292;SDS011;3179;54.350;10.102;2023-12-20T09:25:27;2.80;;;0.80;;
6292;SDS011;3179;54.350;10.102;2023-12-20T09:27:54;5.10;;;1.30;;
6292;SDS011;3179;54.350;10.102;2023-12-20T09:30:21;3.60;;;1.20;;
6292;SDS011;3179;54.350;10.102;2023-12-20T09:32:50;2.40;;;1.13;;
6292;SDS011;3179;54.350;10.102;2023-12-20T09:35:16;2.90;;;0.80;;
6292;SDS011;3179;54.350;10.102;2023-12-20T09:37:42;7.20;;;1.40;;
6292;SDS011;3179;54.350;10.102;2023-12-20T09:40:11;3.30;;;1.13;;
6292;SDS011;3179;54.350;10.102;2023-12-20T09:42:41;1.37;;;0.70;;
6292;SDS011;3179;54.350;10.102;2023-12-20T09:45:14;4.00;;;1.27;;
6292;SDS011;3179;54.350;10.102;2023-12-20T09:47:42;4.57;;;1.03;;
6292;SDS011;3179;54.350;10.102;2023-12-20T09:50:13;3.47;;;1.20;;
6292;SDS011;3179;54.350;10.102;2023-12-20T09:52:40;3.63;;;1.07;;
6292;SDS011;3179;54.350;10.102;2023-12-20T09:55:09;3.83;;;0.90;;
6292;SDS011;3179;54.350;10.102;2023-12-20T09:57:36;1.47;;;1.00;;
6292;SDS011;3179;54.350;10.102;2023-12-20T10:00:03;2.63;;;1.10;;
6292;SDS011;3179;54.350;10.102;2023-12-20T10:02:32;4.40;;;1.53;;
6292;SDS011;3179;54.350;10.102;2023-12-20T10:05:00;6.90;;;1.17;;
6292;SDS011;3179;54.350;10.102;2023-12-20T10:07:29;7.30;;;1.00;;
6292;SDS011;3179;54.350;10.102;2023-12-20T10:09:56;6.17;;;1.17;;
6292;SDS011;3179;54.350;10.102;2023-12-20T10:12:24;2.93;;;0.87;;
6292;SDS011;3179;54.350;10.102;2023-12-20T10:14:51;3.37;;;0.90;;
6292;SDS011;3179;54.350;10.102;2023-12-20T10:17:17;6.97;;;1.60;;
6292;SDS011;3179;54.350;10.102;2023-12-20T10:19:44;4.93;;;1.63;;
6292;SDS011;3179;54.350;10.102;2023-12-20T10:22:11;6.50;;;1.53;;
6292;SDS011;3179;54.350;10.102;2023-12-20T10:24:39;4.80;;;1.40;;
6292;SDS011;3179;54.350;10.102;2023-12-20T10:27:08;12.57;;;2.03;;
6292;SDS011;3179;54.350;10.102;2023-12-20T10:29:35;6.70;;;1.27;;
6292;SDS011;3179;54.350;10.102;2023-12-20T10:32:22;10.07;;;2.23;;
6292;SDS011;3179;54.350;10.102;2023-12-20T10:34:50;6.63;;;1.43;;
6292;SDS011;3179;54.350;10.102;2023-12-20T10:37:17;4.10;;;1.63;;
6292;SDS011;3179;54.350;10.102;2023-12-20T10:39:45;3.03;;;1.63;;
6292;SDS011;3179;54.350;10.102;2023-12-20T10:42:17;7.80;;;2.17;;
6292;SDS011;3179;54.350;10.102;2023-12-20T10:44:46;5.90;;;1.00;;
6292;SDS011;3179;54.350;10.102;2023-12-20T10:47:13;6.40;;;1.67;;
6292;SDS011;3179;54.350;10.102;2023-12-20T10:49:40;10.07;;;1.30;;
6292;SDS011;3179;54.350;10.102;2023-12-20T10:52:09;1.80;;;0.80;;
6292;SDS011;3179;54.350;10.102;2023-12-20T10:54:38;11.73;;;2.03;;
6292;SDS011;3179;54.350;10.102;2023-12-20T10:57:07;4.30;;;1.40;;
6292;SDS011;3179;54.350;10.102;2023-12-20T10:59:36;4.27;;;1.23;;
6292;SDS011;3179;54.350;10.102;2023-12-20T11:02:03;6.37;;;1.43;;
6292;SDS011;3179;54.350;10.102;2023-12-20T11:04:36;6.97;;;1.53;;
6292;SDS011;3179;54.350;10.102;2023-12-20T11:07:08;6.83;;;2.00;;
6292;SDS011;3179;54.350;10.102;2023-12-20T11:09:45;4.03;;;1.33;;
6292;SDS011;3179;54.350;10.102;2023-12-20T11:12:21;7.37;;;1.70;;
6292;SDS011;3179;54.350;10.102;2023-12-20T11:14:53;5.70;;;1.33;;
6292;SDS011;3179;54.350;10.102;2023-12-20T11:17:22;7.67;;;1.80;;
6292;SDS011;3179;54.350;10.102;2023-12-20T11:20:08;5.67;;;1.30;;
6292;SDS011;3179;54.350;10.102;2023-12-20T11:22:37;1.83;;;1.23;;
6292;SDS011;3179;54.350;10.102;2023-12-20T11:25:07;4.57;;;1.80;;
6292;SDS011;3179;54.350;10.102;2023-12-20T11:27:39;7.63;;;1.80;;
6292;SDS011;3179;54.350;10.102;2023-12-20T11:30:08;4.00;;;1.30;;
6292;SDS011;3179;54.350;10.102;2023-12-20T11:32:36;6.37;;;2.10;;
6292;SDS011;3179;54.350;10.102;2023-12-20T11:35:16;7.90;;;1.77;;
6292;SDS011;3179;54.350;10.102;2023-12-20T11:37:45;12.30;;;2.60;;
6292;SDS011;3179;54.350;10.102;2023-12-20T11:40:14;9.80;;;2.80;;
6292;SDS011;3179;54.350;10.102;2023-12-20T11:42:44;5.87;;;2.00;;
6292;SDS011;3179;54.350;10.102;2023-12-20T11:45:15;9.50;;;1.77;;
6292;SDS011;3179;54.350;10.102;2023-12-20T11:47:46;6.57;;;2.13;;
6292;SDS011;3179;54.350;10.102;2023-12-20T11:50:14;3.90;;;1.90;;
6292;SDS011;3179;54.350;10.102;2023-12-20T11:52:41;4.63;;;1.97;;
6292;SDS011;3179;54.350;10.102;2023-12-20T11:55:08;9.43;;;2.40;;
6292;SDS011;3179;54.350;10.102;2023-12-20T11:57:36;10.90;;;2.83;;
6292;SDS011;3179;54.350;10.102;2023-12-20T12:00:05;16.30;;;3.73;;
6292;SDS011;3179;54.350;10.102;2023-12-20T12:02:33;12.07;;;2.20;;
6292;SDS011;3179;54.350;10.102;2023-12-20T12:05:00;6.70;;;2.20;;
6292;SDS011;3179;54.350;10.102;2023-12-20T12:07:27;6.70;;;2.20;;
6292;SDS011;3179;54.350;10.102;2023-12-20T12:09:54;9.67;;;2.30;;
6292;SDS011;3179;54.350;10.102;2023-12-20T12:12:20;9.27;;;2.43;;
6292;SDS011;3179;54.350;10.102;2023-12-20T12:14:48;5.60;;;2.23;;
6292;SDS011;3179;54.350;10.102;2023-12-20T12:17:17;8.53;;;2.23;;
6292;SDS011;3179;54.350;10.102;2023-12-20T12:19:44;8.17;;;2.13;;
6292;SDS011;3179;54.350;10.102;2023-12-20T12:22:11;13.67;;;2.37;;
6292;SDS011;3179;54.350;10.102;2023-12-20T12:24:39;5.77;;;2.53;;
6292;SDS011;3179;54.350;10.102;2023-12-20T12:27:06;9.50;;;2.20;;
6292;SDS011;3179;54.350;10.102;2023-12-20T12:29:33;6.37;;;1.80;;
6292;SDS011;3179;54.350;10.102;2023-12-20T12:32:01;9.13;;;2.10;;
6292;SDS011;3179;54.350;10.102;2023-12-20T12:34:32;9.00;;;2.40;;
6292;SDS011;3179;54.350;10.102;2023-12-20T12:37:00;4.67;;;1.73;;
6292;SDS011;3179;54.350;10.102;2023-12-20T12:39:27;10.30;;;2.53;;
6292;SDS011;3179;54.350;10.102;2023-12-20T12:41:55;8.87;;;2.50;;
6292;SDS011;3179;54.350;10.102;2023-12-20T12:44:23;5.17;;;2.30;;
6292;SDS011;3179;54.350;10.102;2023-12-20T12:46:50;7.47;;;2.70;;
6292;SDS011;3179;54.350;10.102;2023-12-20T12:49:18;7.43;;;2.10;;
6292;SDS011;3179;54.350;10.102;2023-12-20T12:51:47;4.87;;;2.63;;
6292;SDS011;3179;54.350;10.102;2023-12-20T12:54:14;16.17;;;2.80;;
6292;SDS011;3179;54.350;10.102;2023-12-20T12:56:43;11.10;;;2.80;;
6292;SDS011;3179;54.350;10.102;2023-12-20T12:59:12;9.07;;;2.47;;
6292;SDS011;3179;54.350;10.102;2023-12-20T13:01:39;9.67;;;2.27;;
6292;SDS011;3179;54.350;10.102;2023-12-20T13:04:05;16.90;;;3.40;;
6292;SDS011;3179;54.350;10.102;2023-12-20T13:06:35;6.83;;;3.37;;
6292;SDS011;3179;54.350;10.102;2023-12-20T13:09:04;9.13;;;2.80;;
6292;SDS011;3179;54.350;10.102;2023-12-20T13:11:31;4.70;;;1.90;;
6292;SDS011;3179;54.350;10.102;2023-12-20T13:13:58;11.03;;;3.00;;
6292;SDS011;3179;54.350;10.102;2023-12-20T13:16:25;14.73;;;2.87;;
6292;SDS011;3179;54.350;10.102;2023-12-20T13:18:52;21.47;;;5.70;;
6292;SDS011;3179;54.350;10.102;2023-12-20T13:21:19;12.67;;;3.63;;
6292;SDS011;3179;54.350;10.102;2023-12-20T13:23:46;11.00;;;2.73;;
6292;SDS011;3179;54.350;10.102;2023-12-20T13:26:14;10.00;;;3.13;;
6292;SDS011;3179;54.350;10.102;2023-12-20T13:28:41;10.33;;;4.00;;
6292;SDS011;3179;54.350;10.102;2023-12-20T13:31:08;14.10;;;3.13;;
6292;SDS011;3179;54.350;10.102;2023-12-20T13:33:35;10.70;;;3.80;;
6292;SDS011;3179;54.350;10.102;2023-12-20T13:36:02;15.43;;;3.60;;
6292;SDS011;3179;54.350;10.102;2023-12-20T13:38:30;13.70;;;3.53;;
6292;SDS011;3179;54.350;10.102;2023-12-20T13:40:57;18.30;;;4.10;;
6292;SDS011;3179;54.350;10.102;2023-12-20T13:43:25;14.60;;;3.50;;
6292;SDS011;3179;54.350;10.102;2023-12-20T13:45:52;10.53;;;3.43;;
6292;SDS011;3179;54.350;10.102;2023-12-20T13:48:19;16.27;;;4.60;;
6292;SDS011;3179;54.350;10.102;2023-12-20T13:50:46;10.70;;;4.07;;
6292;SDS011;3179;54.350;10.102;2023-12-20T13:53:12;15.10;;;3.80;;
6292;SDS011;3179;54.350;10.102;2023-12-20T13:55:39;9.63;;;3.30;;
6292;SDS011;3179;54.350;10.102;2023-12-20T13:58:06;17.03;;;5.37;;
6292;SDS011;3179;54.350;10.102;2023-12-20T14:00:36;11.67;;;3.63;;
6292;SDS011;3179;54.350;10.102;2023-12-20T14:03:03;11.23;;;3.07;;
6292;SDS011;3179;54.350;10.102;2023-12-20T14:05:31;14.93;;;3.87;;
6292;SDS011;3179;54.350;10.102;2023-12-20T14:07:58;10.43;;;3.80;;
6292;SDS011;3179;54.350;10.102;2023-12-20T14:10:25;13.60;;;3.43;;
6292;SDS011;3179;54.350;10.102;2023-12-20T14:12:53;12.60;;;3.47;;
6292;SDS011;3179;54.350;10.102;2023-12-20T14:15:20;10.93;;;4.50;;
6292;SDS011;3179;54.350;10.102;2023-12-20T14:17:48;8.80;;;3.23;;
6292;SDS011;3179;54.350;10.102;2023-12-20T14:20:15;15.73;;;4.67;;
6292;SDS011;3179;54.350;10.102;2023-12-20T14:22:43;12.73;;;4.13;;
6292;SDS011;3179;54.350;10.102;2023-12-20T14:25:10;7.17;;;3.33;;
6292;SDS011;3179;54.350;10.102;2023-12-20T14:27:37;9.80;;;3.40;;
6292;SDS011;3179;54.350;10.102;2023-12-20T14:30:04;15.20;;;4.20;;
6292;SDS011;3179;54.350;10.102;2023-12-20T14:32:34;8.60;;;3.37;;
6292;SDS011;3179;54.350;10.102;2023-12-20T14:35:05;6.83;;;3.23;;
6292;SDS011;3179;54.350;10.102;2023-12-20T14:37:33;10.37;;;3.67;;
6292;SDS011;3179;54.350;10.102;2023-12-20T14:40:00;6.70;;;3.07;;
6292;SDS011;3179;54.350;10.102;2023-12-20T14:42:27;7.73;;;4.03;;
6292;SDS011;3179;54.350;10.102;2023-12-20T14:44:54;7.13;;;3.40;;
6292;SDS011;3179;54.350;10.102;2023-12-20T14:47:21;8.90;;;4.60;;
6292;SDS011;3179;54.350;10.102;2023-12-20T14:49:50;9.47;;;4.40;;
6292;SDS011;3179;54.350;10.102;2023-12-20T14:52:18;10.17;;;4.50;;
6292;SDS011;3179;54.350;10.102;2023-12-20T14:54:45;14.13;;;4.07;;
6292;SDS011;3179;54.350;10.102;2023-12-20T14:57:12;11.40;;;4.53;;